Mountainhome, Pennsylvania
Current Conditions -  °F | °C
As of 12:53 PM on Monday 24 Nov 2014 (Local Time) from KMPO Reporting Station
Broken Clouds Broken Clouds  
Wind Chill: 62°   Ceiling: 2300
Heat Index: 62°   Visibility: 10mi
Dew Point: 54°   Wind: 22mph
Humidity: 75%   Direction: 210°SSW
Pressure: 29.58"   Gusts: 32mph
Location:  41.18°N, 75.26°W
Report Text: KMPO 241753Z AUTO 21019G28KT 10SM SCT016 BKN023 17/12 A2958 RMK AO2 PK WND 20028/1744 SLP016 60004 T01670122 10167 20144 58022 $
Loading
Personal Weather Stations






























Interactive Weather Map New forecast layout! Learn more

10-Day Weather Forecast

Advertisements
Track Severe Weather on mobile